createdAt,value
2022-10-02T00:00:13.994Z,8.20
2022-10-02T00:02:50.933Z,8.20
2022-10-02T00:05:29.246Z,8.20
2022-10-02T00:08:14.061Z,8.20
2022-10-02T00:10:48.473Z,8.20
2022-10-02T00:13:26.498Z,8.20
2022-10-02T00:15:54.857Z,8.10
2022-10-02T00:18:34.660Z,8.00
2022-10-02T00:21:12.658Z,8.00
2022-10-02T00:23:54.200Z,7.90
2022-10-02T00:26:26.884Z,7.90
2022-10-02T00:29:12.456Z,8.00
2022-10-02T00:31:55.020Z,7.90
2022-10-02T00:34:43.590Z,7.90
2022-10-02T00:37:22.864Z,7.90
2022-10-02T00:40:15.664Z,7.80
2022-10-02T00:42:52.104Z,7.70
2022-10-02T00:45:43.139Z,7.70
2022-10-02T00:48:22.284Z,7.70
2022-10-02T00:51:03.975Z,7.70
2022-10-02T00:54:00.411Z,7.70
2022-10-02T00:56:41.887Z,7.60
2022-10-02T00:59:15.115Z,7.50
2022-10-02T01:01:49.365Z,7.40
2022-10-02T01:04:25.602Z,7.30
2022-10-02T01:06:53.044Z,7.30
2022-10-02T01:09:20.389Z,7.20
2022-10-02T01:11:47.569Z,7.30
2022-10-02T01:14:15.639Z,7.30
2022-10-02T01:16:45.073Z,7.40
2022-10-02T01:19:35.611Z,7.60
2022-10-02T01:22:10.653Z,7.70
2022-10-02T01:24:47.980Z,7.80
2022-10-02T01:27:15.363Z,7.80
2022-10-02T01:29:46.400Z,7.90
2022-10-02T01:32:13.634Z,7.90
2022-10-02T01:34:40.753Z,7.90
2022-10-02T01:37:08.814Z,7.90
2022-10-02T01:39:36.115Z,8.00
2022-10-02T01:42:03.423Z,8.00
2022-10-02T01:44:30.758Z,8.20
2022-10-02T01:47:06.249Z,8.20
2022-10-02T01:50:04.054Z,8.10
2022-10-02T01:52:53.900Z,8.10
2022-10-02T01:55:23.962Z,8.10
2022-10-02T01:58:11.775Z,8.10
2022-10-02T02:01:20.343Z,8.10
2022-10-02T02:04:09.239Z,8.00
2022-10-02T02:06:51.598Z,8.00
2022-10-02T02:09:45.211Z,8.00
2022-10-02T02:12:19.139Z,8.10
2022-10-02T02:14:51.682Z,8.20
2022-10-02T02:17:31.569Z,8.40
2022-10-02T02:20:18.209Z,8.50
2022-10-02T02:22:49.826Z,8.60
2022-10-02T02:25:25.324Z,8.70
2022-10-02T02:28:03.338Z,8.80
2022-10-02T02:30:32.418Z,8.80
2022-10-02T02:33:09.436Z,8.80
2022-10-02T02:35:42.670Z,8.80
2022-10-02T02:38:32.537Z,8.90
2022-10-02T02:41:13.913Z,8.90
2022-10-02T02:43:52.690Z,8.90
2022-10-02T02:46:29.573Z,9.00
2022-10-02T02:49:05.351Z,9.10
2022-10-02T02:51:39.226Z,9.00
2022-10-02T02:54:10.987Z,9.10
2022-10-02T02:56:42.120Z,9.10
2022-10-02T02:59:14.616Z,9.10
2022-10-02T03:01:42.793Z,9.20
2022-10-02T03:04:13.917Z,9.20
2022-10-02T03:06:46.276Z,9.20
2022-10-02T03:09:21.737Z,9.20
2022-10-02T03:12:07.589Z,9.20
2022-10-02T03:14:45.149Z,9.10
2022-10-02T03:17:21.161Z,9.10
2022-10-02T03:20:31.325Z,9.10
2022-10-02T03:23:15.227Z,9.10
2022-10-02T03:25:45.083Z,9.10
2022-10-02T03:28:54.497Z,9.20
2022-10-02T03:31:22.726Z,9.30
2022-10-02T03:33:52.239Z,9.20
2022-10-02T03:36:20.843Z,9.10
2022-10-02T03:39:00.665Z,9.00
2022-10-02T03:41:28.067Z,8.90
2022-10-02T03:43:55.176Z,8.90
2022-10-02T03:46:22.447Z,9.00
2022-10-02T03:48:49.567Z,8.90
2022-10-02T03:51:16.642Z,8.80
2022-10-02T03:53:43.815Z,8.80
2022-10-02T03:56:20.023Z,8.80
2022-10-02T03:58:49.947Z,8.80
2022-10-02T04:01:37.233Z,8.80
2022-10-02T04:04:18.528Z,8.80
2022-10-02T04:06:53.265Z,8.80
2022-10-02T04:09:37.716Z,8.80
2022-10-02T04:12:34.327Z,8.80
2022-10-02T04:15:08.926Z,8.80
2022-10-02T04:17:56.933Z,8.80
2022-10-02T04:20:33.599Z,8.70
2022-10-02T04:23:03.542Z,8.70
2022-10-02T04:25:36.133Z,8.70
2022-10-02T04:28:07.959Z,8.80
2022-10-02T04:30:35.209Z,8.80
2022-10-02T04:33:20.471Z,8.80
2022-10-02T04:36:06.747Z,8.90
2022-10-02T04:38:54.913Z,8.90
2022-10-02T04:41:42.267Z,8.90
2022-10-02T04:44:45.123Z,8.90
2022-10-02T04:47:14.930Z,9.00
2022-10-02T04:50:00.187Z,8.90
2022-10-02T04:52:42.361Z,8.90
2022-10-02T04:55:37.134Z,8.80
2022-10-02T04:58:38.686Z,8.80
2022-10-02T05:01:21.073Z,8.80
2022-10-02T05:04:00.675Z,8.70
2022-10-02T05:06:58.994Z,8.70
2022-10-02T05:09:30.383Z,8.80
2022-10-02T05:12:30.750Z,8.90
2022-10-02T05:15:17.852Z,8.90
2022-10-02T05:18:17.898Z,8.90
2022-10-02T05:21:11.022Z,8.90
2022-10-02T05:23:49.991Z,8.80
2022-10-02T05:26:44.856Z,8.70
2022-10-02T05:29:35.171Z,8.70
2022-10-02T05:32:24.090Z,8.70
2022-10-02T05:34:57.067Z,8.60
2022-10-02T05:38:05.513Z,8.60
2022-10-02T05:40:41.503Z,8.50
2022-10-02T05:43:24.528Z,8.50
2022-10-02T05:46:11.756Z,8.50
2022-10-02T05:48:46.504Z,8.40
2022-10-02T05:51:24.393Z,8.40
2022-10-02T05:53:58.964Z,8.40
2022-10-02T05:56:41.054Z,8.30
2022-10-02T05:59:29.147Z,8.30
2022-10-02T06:01:58.251Z,8.30
2022-10-02T06:04:35.029Z,8.20
2022-10-02T06:07:09.622Z,8.20
2022-10-02T06:09:44.692Z,8.00
2022-10-02T06:12:20.778Z,8.00
2022-10-02T06:14:53.652Z,7.90
2022-10-02T06:17:36.694Z,7.80
2022-10-02T06:20:33.036Z,7.80
2022-10-02T06:23:18.762Z,7.70
2022-10-02T06:26:21.341Z,7.70
2022-10-02T06:28:56.799Z,7.60
2022-10-02T06:31:45.862Z,7.60
2022-10-02T06:34:14.328Z,7.50
2022-10-02T06:36:44.604Z,7.50
2022-10-02T06:39:23.746Z,7.50
2022-10-02T06:42:03.950Z,7.50
2022-10-02T06:44:50.735Z,7.50
2022-10-02T06:47:45.468Z,7.60
2022-10-02T06:50:28.258Z,7.50
2022-10-02T06:53:06.233Z,7.50
2022-10-02T06:55:33.338Z,7.50
2022-10-02T06:58:30.319Z,7.50
2022-10-02T07:01:16.488Z,7.50
2022-10-02T07:04:04.295Z,7.70
2022-10-02T07:07:12.890Z,7.70
2022-10-02T07:09:49.100Z,7.70
2022-10-02T07:12:28.645Z,7.80
2022-10-02T07:15:10.908Z,7.90
2022-10-02T07:17:57.486Z,8.00
2022-10-02T07:20:30.515Z,8.10
2022-10-02T07:23:14.987Z,8.20
2022-10-02T07:25:45.350Z,8.30
2022-10-02T07:28:49.721Z,8.30
2022-10-02T07:31:43.495Z,8.50
2022-10-02T07:34:46.866Z,8.60
2022-10-02T07:37:16.845Z,8.70
2022-10-02T07:40:12.151Z,8.90
2022-10-02T07:42:39.248Z,9.10
2022-10-02T07:45:23.404Z,9.30
2022-10-02T07:48:20.349Z,9.50
2022-10-02T07:51:29.946Z,9.70
2022-10-02T07:54:16.830Z,9.90
2022-10-02T07:56:45.846Z,10.10
2022-10-02T07:59:17.227Z,10.30
2022-10-02T08:01:46.749Z,10.40
2022-10-02T08:04:18.995Z,10.60
2022-10-02T08:06:49.777Z,10.70
2022-10-02T08:09:45.990Z,10.90
2022-10-02T08:12:19.510Z,11.10
2022-10-02T08:14:50.757Z,11.20
2022-10-02T08:17:39.941Z,11.40
2022-10-02T08:20:29.486Z,11.60
2022-10-02T08:23:00.498Z,11.80
2022-10-02T08:25:51.334Z,12.00
2022-10-02T08:28:28.250Z,12.20
2022-10-02T08:30:55.496Z,12.40
2022-10-02T08:33:23.296Z,12.50
2022-10-02T08:36:02.350Z,12.60
2022-10-02T08:38:45.187Z,12.50
2022-10-02T08:41:21.147Z,12.50
2022-10-02T08:44:21.516Z,12.60
2022-10-02T08:47:33.223Z,12.70
2022-10-02T08:50:22.085Z,12.90
2022-10-02T08:53:26.890Z,12.90
2022-10-02T08:55:59.131Z,13.00
2022-10-02T08:58:47.888Z,13.00
2022-10-02T09:02:08.306Z,13.10
2022-10-02T09:05:03.241Z,13.20
2022-10-02T09:08:12.470Z,13.30
2022-10-02T09:10:51.445Z,13.40
2022-10-02T09:13:56.533Z,13.40
2022-10-02T09:16:30.275Z,13.50
2022-10-02T09:19:19.395Z,13.60
2022-10-02T09:21:56.206Z,13.60
2022-10-02T09:24:32.261Z,13.70
2022-10-02T09:27:31.655Z,13.80
2022-10-02T09:30:39.487Z,13.90
2022-10-02T09:33:39.463Z,13.90
2022-10-02T09:36:06.627Z,14.00
2022-10-02T09:38:52.294Z,14.00
2022-10-02T09:41:38.857Z,14.10
2022-10-02T09:45:01.586Z,14.20
2022-10-02T09:47:52.284Z,14.30
2022-10-02T09:51:15.758Z,14.40
2022-10-02T09:54:21.720Z,14.40
2022-10-02T09:57:19.424Z,14.70
2022-10-02T10:00:22.257Z,14.80
2022-10-02T10:03:11.594Z,14.80
2022-10-02T10:05:57.171Z,15.00
2022-10-02T10:08:44.817Z,15.00
2022-10-02T10:11:31.216Z,15.10
2022-10-02T10:14:37.076Z,15.20
2022-10-02T10:17:34.400Z,15.20
2022-10-02T10:20:40.739Z,15.20
2022-10-02T10:23:20.601Z,15.20
2022-10-02T10:25:58.153Z,15.30
2022-10-02T10:28:38.065Z,15.30
2022-10-02T10:31:36.742Z,15.30
2022-10-02T10:34:19.099Z,15.20
2022-10-02T10:37:13.942Z,15.30
2022-10-02T10:40:09.050Z,15.40
2022-10-02T10:43:07.556Z,15.30
2022-10-02T10:46:02.536Z,15.40
2022-10-02T10:48:59.961Z,15.50
2022-10-02T10:51:43.454Z,15.60
2022-10-02T10:54:28.469Z,15.50
2022-10-02T10:57:47.180Z,15.60
2022-10-02T11:00:45.922Z,15.60
2022-10-02T11:03:44.976Z,15.70
2022-10-02T11:06:22.377Z,15.80
2022-10-02T11:09:12.627Z,15.90
2022-10-02T11:12:13.453Z,15.90
2022-10-02T11:15:19.085Z,15.80
2022-10-02T11:18:01.174Z,15.90
2022-10-02T11:20:42.611Z,16.00
2022-10-02T11:23:21.908Z,16.00
2022-10-02T11:26:11.575Z,16.10
2022-10-02T11:29:00.321Z,16.20
2022-10-02T11:31:49.984Z,16.20
2022-10-02T11:34:42.705Z,16.20
2022-10-02T11:37:27.896Z,16.30
2022-10-02T11:40:16.657Z,16.30
2022-10-02T11:42:43.736Z,16.20
2022-10-02T11:45:32.786Z,16.20
2022-10-02T11:48:15.253Z,16.20
2022-10-02T11:51:17.493Z,16.10
2022-10-02T11:54:18.186Z,16.00
2022-10-02T11:57:16.402Z,15.90
2022-10-02T11:59:52.799Z,15.80
2022-10-02T12:02:26.501Z,15.70
2022-10-02T12:05:21.794Z,15.70
2022-10-02T12:08:17.514Z,15.60
2022-10-02T12:11:08.774Z,15.40
2022-10-02T12:14:13.164Z,15.20
2022-10-02T12:17:12.814Z,15.10
2022-10-02T12:20:13.273Z,15.10
2022-10-02T12:23:23.979Z,15.10
2022-10-02T12:26:20.156Z,15.00
2022-10-02T12:29:17.238Z,14.90
2022-10-02T12:32:00.717Z,14.90
2022-10-02T12:34:34.353Z,14.90
2022-10-02T12:37:13.025Z,14.90
2022-10-02T12:40:04.950Z,14.90
2022-10-02T12:42:52.891Z,14.90
2022-10-02T12:45:44.760Z,14.90
2022-10-02T12:48:48.083Z,14.90
2022-10-02T12:51:46.506Z,15.00
2022-10-02T12:54:53.228Z,15.00
2022-10-02T12:57:56.121Z,15.00
2022-10-02T13:00:41.569Z,15.00
2022-10-02T13:03:42.404Z,15.10
2022-10-02T13:06:25.491Z,15.10
2022-10-02T13:09:03.680Z,15.30
2022-10-02T13:11:34.492Z,15.30
2022-10-02T13:14:20.373Z,15.40
2022-10-02T13:17:03.434Z,15.40
2022-10-02T13:19:50.315Z,15.50
2022-10-02T13:22:31.463Z,15.50
2022-10-02T13:25:34.534Z,15.50
2022-10-02T13:28:44.723Z,15.60
2022-10-02T13:31:32.617Z,15.80
2022-10-02T13:34:25.886Z,15.90
2022-10-02T13:37:10.968Z,16.10
2022-10-02T13:40:04.443Z,16.20
2022-10-02T13:42:51.126Z,16.40
2022-10-02T13:45:34.523Z,16.40
2022-10-02T13:48:01.658Z,16.30
2022-10-02T13:51:04.687Z,16.20
2022-10-02T13:53:43.919Z,16.20
2022-10-02T13:56:37.992Z,16.10
2022-10-02T13:59:17.077Z,16.20
2022-10-02T14:02:17.052Z,16.20
2022-10-02T14:04:46.284Z,16.10
2022-10-02T14:07:13.210Z,16.00
2022-10-02T14:10:11.084Z,15.90
2022-10-02T14:12:47.640Z,15.90
2022-10-02T14:15:31.564Z,15.90
2022-10-02T14:18:16.623Z,15.80
2022-10-02T14:20:55.650Z,15.70
2022-10-02T14:23:43.186Z,15.70
2022-10-02T14:26:29.357Z,15.70
2022-10-02T14:29:08.772Z,15.70
2022-10-02T14:32:08.748Z,15.70
2022-10-02T14:34:53.414Z,15.70
2022-10-02T14:38:16.619Z,15.70
2022-10-02T14:40:54.217Z,15.60
2022-10-02T14:43:32.991Z,15.60
2022-10-02T14:46:12.370Z,15.60
2022-10-02T14:49:21.569Z,15.60
2022-10-02T14:52:07.090Z,15.60
2022-10-02T14:54:56.015Z,15.60
2022-10-02T14:57:36.620Z,15.60
2022-10-02T15:00:22.084Z,15.60
2022-10-02T15:02:49.245Z,15.60
2022-10-02T15:05:43.845Z,15.60
2022-10-02T15:08:22.216Z,15.50
2022-10-02T15:10:49.856Z,15.50
2022-10-02T15:13:26.849Z,15.50
2022-10-02T15:16:19.247Z,15.50
2022-10-02T15:18:58.905Z,15.40
2022-10-02T15:21:58.107Z,15.40
2022-10-02T15:24:45.041Z,15.30
2022-10-02T15:27:12.317Z,15.30
2022-10-02T15:29:58.442Z,15.20
2022-10-02T15:32:40.141Z,15.20
2022-10-02T15:35:54.786Z,15.10
2022-10-02T15:38:40.243Z,15.10
2022-10-02T15:41:16.819Z,15.20
2022-10-02T15:43:51.625Z,15.20
2022-10-02T15:46:40.602Z,15.30
2022-10-02T15:49:13.745Z,15.30
2022-10-02T15:52:01.088Z,15.30
2022-10-02T15:55:04.684Z,15.30
2022-10-02T15:57:44.916Z,15.20
2022-10-02T16:00:13.939Z,15.30
2022-10-02T16:03:00.224Z,15.30
2022-10-02T16:06:12.692Z,15.20
2022-10-02T16:09:21.421Z,15.20
2022-10-02T16:12:13.431Z,15.10
2022-10-02T16:15:02.190Z,15.00
2022-10-02T16:17:59.552Z,14.80
2022-10-02T16:20:41.575Z,14.70
2022-10-02T16:23:23.803Z,14.60
2022-10-02T16:26:15.465Z,14.50
2022-10-02T16:29:11.689Z,14.40
2022-10-02T16:31:59.123Z,14.30
2022-10-02T16:34:35.283Z,14.10
2022-10-02T16:37:11.113Z,14.00
2022-10-02T16:39:52.135Z,13.90
2022-10-02T16:42:28.350Z,13.80
2022-10-02T16:44:58.290Z,13.80
2022-10-02T16:47:36.845Z,13.70
2022-10-02T16:50:12.782Z,13.60
2022-10-02T16:52:52.479Z,13.50
2022-10-02T16:55:40.321Z,13.50
2022-10-02T16:58:41.145Z,13.40
2022-10-02T17:01:53.533Z,13.40
2022-10-02T17:04:52.016Z,13.40
2022-10-02T17:07:42.814Z,13.30
2022-10-02T17:10:35.386Z,13.20
2022-10-02T17:13:44.775Z,13.20
2022-10-02T17:16:24.346Z,13.10
2022-10-02T17:19:00.139Z,13.00
2022-10-02T17:21:38.923Z,12.90
2022-10-02T17:24:33.465Z,12.90
2022-10-02T17:27:18.918Z,12.80
2022-10-02T17:29:57.174Z,12.80
2022-10-02T17:32:53.238Z,12.70
2022-10-02T17:36:06.218Z,12.60
2022-10-02T17:38:51.980Z,12.70
2022-10-02T17:41:31.193Z,12.60
2022-10-02T17:44:22.504Z,12.50
2022-10-02T17:47:17.891Z,12.50
2022-10-02T17:50:16.795Z,12.40
2022-10-02T17:53:37.985Z,12.30
2022-10-02T17:56:29.588Z,12.40
2022-10-02T17:59:26.303Z,12.30
2022-10-02T18:02:17.761Z,12.30
2022-10-02T18:05:11.485Z,12.30
2022-10-02T18:08:09.216Z,12.30
2022-10-02T18:10:42.625Z,12.30
2022-10-02T18:13:34.295Z,12.30
2022-10-02T18:16:28.286Z,12.50
2022-10-02T18:18:55.376Z,12.50
2022-10-02T18:21:56.461Z,12.60
2022-10-02T18:24:52.793Z,12.60
2022-10-02T18:27:44.578Z,12.60
2022-10-02T18:30:23.641Z,12.70
2022-10-02T18:33:25.368Z,12.70
2022-10-02T18:36:10.986Z,12.70
2022-10-02T18:38:56.980Z,12.70
2022-10-02T18:41:36.308Z,12.70
2022-10-02T18:44:22.447Z,12.60
2022-10-02T18:47:02.841Z,12.60
2022-10-02T18:49:38.759Z,12.50
2022-10-02T18:52:23.611Z,12.40
2022-10-02T18:55:03.279Z,12.40
2022-10-02T18:58:08.083Z,12.40
2022-10-02T19:01:10.240Z,12.30
2022-10-02T19:03:55.413Z,12.30
2022-10-02T19:06:54.729Z,12.20
2022-10-02T19:09:27.845Z,12.20
2022-10-02T19:11:58.508Z,12.10
2022-10-02T19:14:30.252Z,12.10
2022-10-02T19:17:19.337Z,12.00
2022-10-02T19:19:46.481Z,12.00
2022-10-02T19:22:36.418Z,11.90
2022-10-02T19:25:11.782Z,11.90
2022-10-02T19:27:43.709Z,11.90
2022-10-02T19:30:26.510Z,11.80
2022-10-02T19:32:57.787Z,11.70
2022-10-02T19:35:32.705Z,11.70
2022-10-02T19:38:20.701Z,11.60
2022-10-02T19:40:55.194Z,11.50
2022-10-02T19:43:32.611Z,11.50
2022-10-02T19:46:04.395Z,11.40
2022-10-02T19:48:33.472Z,11.40
2022-10-02T19:51:07.511Z,11.40
2022-10-02T19:53:41.599Z,11.40
2022-10-02T19:56:15.803Z,11.30
2022-10-02T19:58:50.048Z,11.30
2022-10-02T20:01:20.357Z,11.20
2022-10-02T20:03:50.476Z,11.20
2022-10-02T20:06:22.423Z,11.20
2022-10-02T20:09:02.906Z,11.30
2022-10-02T20:11:35.183Z,11.30
2022-10-02T20:14:10.126Z,11.30
2022-10-02T20:16:55.743Z,11.30
2022-10-02T20:19:29.030Z,11.30
2022-10-02T20:22:00.131Z,11.20
2022-10-02T20:24:41.801Z,11.20
2022-10-02T20:27:37.471Z,11.10
2022-10-02T20:30:14.034Z,11.20
2022-10-02T20:33:02.566Z,11.20
2022-10-02T20:35:47.044Z,11.20
2022-10-02T20:38:38.847Z,11.20
2022-10-02T20:41:32.139Z,11.20
2022-10-02T20:44:07.422Z,11.20
2022-10-02T20:46:35.859Z,11.10
2022-10-02T20:49:40.662Z,11.10
2022-10-02T20:52:27.514Z,11.20
2022-10-02T20:54:54.667Z,11.10
2022-10-02T20:58:00.320Z,11.10
2022-10-02T21:00:50.657Z,11.00
2022-10-02T21:03:17.808Z,10.90
2022-10-02T21:06:03.333Z,10.90
2022-10-02T21:08:49.199Z,10.80
2022-10-02T21:11:38.758Z,10.80
2022-10-02T21:14:43.614Z,10.70
2022-10-02T21:17:15.467Z,10.70
2022-10-02T21:20:00.806Z,10.70
2022-10-02T21:22:52.392Z,10.70
2022-10-02T21:25:28.692Z,10.60
2022-10-02T21:28:17.412Z,10.60
2022-10-02T21:31:01.301Z,10.60
2022-10-02T21:33:55.211Z,10.60
2022-10-02T21:36:36.493Z,10.60
2022-10-02T21:39:34.577Z,10.50
2022-10-02T21:42:25.921Z,10.50
2022-10-02T21:45:04.286Z,10.50
2022-10-02T21:48:04.677Z,10.50
2022-10-02T21:50:50.847Z,10.60
2022-10-02T21:53:39.396Z,10.50
2022-10-02T21:56:21.644Z,10.50
2022-10-02T21:59:27.346Z,10.50
2022-10-02T22:02:26.225Z,10.50
2022-10-02T22:05:19.350Z,10.40
2022-10-02T22:08:08.316Z,10.40
2022-10-02T22:10:49.443Z,10.30
2022-10-02T22:13:25.440Z,10.30
2022-10-02T22:16:19.035Z,10.20
2022-10-02T22:19:33.620Z,10.20
2022-10-02T22:22:29.595Z,10.10
2022-10-02T22:25:27.839Z,10.10
2022-10-02T22:28:17.843Z,10.00
2022-10-02T22:30:57.168Z,10.00
2022-10-02T22:33:43.706Z,9.90
2022-10-02T22:36:25.670Z,9.90
2022-10-02T22:39:29.238Z,9.80
2022-10-02T22:42:17.973Z,9.80
2022-10-02T22:45:05.258Z,9.90
2022-10-02T22:47:54.288Z,9.90
2022-10-02T22:50:48.169Z,10.00
2022-10-02T22:53:24.276Z,10.00
2022-10-02T22:55:56.459Z,10.00
2022-10-02T22:58:23.548Z,10.00
2022-10-02T23:00:59.348Z,10.00
2022-10-02T23:03:29.155Z,10.00
2022-10-02T23:06:12.497Z,10.00
2022-10-02T23:08:51.675Z,10.00
2022-10-02T23:11:19.050Z,10.00
2022-10-02T23:14:16.120Z,10.00
2022-10-02T23:16:51.322Z,10.00
2022-10-02T23:19:28.089Z,10.00
2022-10-02T23:22:05.282Z,10.00
2022-10-02T23:24:47.479Z,10.00
2022-10-02T23:27:20.566Z,10.00
2022-10-02T23:30:03.447Z,10.00
2022-10-02T23:32:55.157Z,10.00
2022-10-02T23:36:01.437Z,10.00
2022-10-02T23:38:44.700Z,9.90
2022-10-02T23:41:35.540Z,9.90
2022-10-02T23:44:39.780Z,9.90
2022-10-02T23:47:27.507Z,10.00
2022-10-02T23:49:56.450Z,10.00
2022-10-02T23:52:51.231Z,10.00
2022-10-02T23:55:32.267Z,10.00
2022-10-02T23:58:27.412Z,10.00
